Time;durP1;ratioP1;P1;durP2;ratioP2;P2;SDS_P1;SDS_P2;PMS_P1;PMS_P2;Temp;Humidity;BMP_temperature;BMP_pressure;BME280_temperature;BME280_humidity;BME280_pressure;Samples;Min_cycle;Max_cycle;Signal;HPM_P1;HPM_P2
2023/07/12 00:01:26;;;;;;;;;;;;;;;-140.72;100.00;52419.28;4987276;28;19937;-71
2023/07/12 00:03:52;;;;;;;;;;;;;;;-140.72;100.00;52415.22;4991368;28;20284;-71
2023/07/12 00:06:18;;;;;;;;;;;;;;;-140.72;100.00;52423.31;4992764;28;19967;-70
2023/07/12 00:08:44;;;;;;;;;;;;;;;-140.72;100.00;52413.19;4968701;28;19977;-71
2023/07/12 00:11:20;;;;;;;;;;;;;;;-140.72;100.00;52435.50;4992758;28;20261;-71
2023/07/12 00:13:47;;;;;;;;;;;;;;;-140.72;100.00;52421.28;4986150;28;20069;-71
2023/07/12 00:16:21;;;;;;;;;;;;;;;-140.72;100.00;52390.84;4993023;28;20376;-71
2023/07/12 00:18:46;;;;;;;;;;;;;;;-140.72;100.00;52461.88;4989679;28;19929;-70
2023/07/12 00:21:22;;;;;;;;;;;;;;;-140.72;100.00;52455.78;4993733;28;19944;-70
2023/07/12 00:23:52;;;;;;;;;;;;;;;-140.72;100.00;52431.44;4993574;28;20387;-71
2023/07/12 00:26:23;;;;;;;;;;;;;;;-140.72;100.00;52433.47;4992667;28;20015;-71
2023/07/12 00:28:49;;;;;;;;;;;;;;;-140.72;100.00;52463.91;4989108;28;20408;-71
2023/07/12 00:31:14;;;;;;;;;;;;;;;-140.72;100.00;52463.91;4971580;28;19929;-70
2023/07/12 00:33:39;;;;;;;;;;;;;;;-140.72;100.00;52435.50;4994427;28;19943;-71
2023/07/12 00:36:05;;;;;;;;;;;;;;;-140.72;100.00;52488.25;4987110;28;19922;-71
2023/07/12 00:38:30;;;;;;;;;;;;;;;-140.72;100.00;52449.72;4996959;28;19926;-71
2023/07/12 00:40:55;;;;;;;;;;;;;;;-140.72;100.00;52461.88;4991725;28;19960;-72
2023/07/12 00:43:41;;;;;;;;;;;;;;;-140.72;100.00;52476.09;4989358;28;19937;-71
2023/07/12 00:46:30;;;;;;;;;;;;;;;-140.72;100.00;52500.44;4993197;28;20020;-71
2023/07/12 00:48:55;;;;;;;;;;;;;;;-140.72;100.00;52474.06;4974761;28;20001;-71
2023/07/12 00:51:29;;;;;;;;;;;;;;;-140.72;100.00;52447.69;4993220;28;19922;-71
2023/07/12 00:53:55;;;;;;;;;;;;;;;-140.72;100.00;52482.16;4993525;28;20379;-70
2023/07/12 00:56:20;;;;;;;;;;;;;;;-140.72;100.00;52467.97;4992260;28;19932;-71
2023/07/12 00:58:48;;;;;;;;;;;;;;;-140.72;100.00;52484.19;4991299;28;19997;-70
2023/07/12 01:01:14;;;;;;;;;;;;;;;-140.72;100.00;52455.78;4987850;28;20285;-72
2023/07/12 01:03:42;;;;;;;;;;;;;;;-140.72;100.00;52439.56;4989617;28;19918;-71
2023/07/12 01:06:09;;;;;;;;;;;;;;;-140.72;100.00;52427.38;4992357;28;19921;-71
2023/07/12 01:08:34;;;;;;;;;;;;;;;-140.72;100.00;52470.00;4986835;28;20422;-71
2023/07/12 01:11:01;;;;;;;;;;;;;;;-140.72;100.00;52470.00;4990046;28;19926;-70
2023/07/12 01:13:27;;;;;;;;;;;;;;;-140.72;100.00;52482.16;4991535;28;19918;-71
2023/07/12 01:15:53;;;;;;;;;;;;;;;-140.72;100.00;52472.03;4986681;28;19930;-71
2023/07/12 01:18:19;;;;;;;;;;;;;;;-140.72;100.00;52488.25;4984544;28;19922;-70
2023/07/12 01:20:45;;;;;;;;;;;;;;;-140.72;100.00;52504.50;4967632;28;19924;-70
2023/07/12 01:23:10;;;;;;;;;;;;;;;-140.72;100.00;52500.44;4989159;28;20368;-70
2023/07/12 01:25:42;;;;;;;;;;;;;;;-140.72;100.00;52510.59;4989176;28;19922;-70
2023/07/12 01:28:07;;;;;;;;;;;;;;;-140.72;100.00;52516.66;4990088;28;19929;-71
2023/07/12 01:30:33;;;;;;;;;;;;;;;-140.72;100.00;52482.16;4992369;28;19922;-71
2023/07/12 01:32:59;;;;;;;;;;;;;;;-140.72;100.00;52494.34;4987445;28;20995;-71
2023/07/12 01:35:24;;;;;;;;;;;;;;;-140.72;100.00;52494.34;4989924;28;20013;-71
2023/07/12 01:37:49;;;;;;;;;;;;;;;-140.72;100.00;52512.59;4990875;28;19944;-72
2023/07/12 01:40:15;;;;;;;;;;;;;;;-140.72;100.00;52472.03;4988056;28;19922;-71
2023/07/12 01:42:40;;;;;;;;;;;;;;;-140.72;100.00;52502.47;4985316;28;19965;-71
2023/07/12 01:45:05;;;;;;;;;;;;;;;-140.72;100.00;52543.03;4984291;28;20000;-71
2023/07/12 01:47:31;;;;;;;;;;;;;;;-140.72;100.00;52478.13;4989393;28;19941;-71
2023/07/12 01:50:05;;;;;;;;;;;;;;;-140.72;100.00;52423.31;4988842;28;20391;-71
2023/07/12 01:52:30;;;;;;;;;;;;;;;-140.72;100.00;52472.03;4992263;28;19996;-71
2023/07/12 01:54:57;;;;;;;;;;;;;;;-140.72;100.00;52512.59;4987961;28;20398;-72
2023/07/12 01:57:22;;;;;;;;;;;;;;;-140.72;100.00;52502.47;4974747;28;19922;-71
2023/07/12 01:59:47;;;;;;;;;;;;;;;-140.72;100.00;52510.59;4991417;28;19922;-71
2023/07/12 02:02:12;;;;;;;;;;;;;;;-140.72;100.00;52463.91;4988784;28;19921;-71
2023/07/12 02:04:38;;;;;;;;;;;;;;;-140.72;100.00;52486.22;4988691;28;20407;-71
2023/07/12 02:07:04;;;;;;;;;;;;;;;-140.72;100.00;52514.63;4969356;28;19953;-71
2023/07/12 02:09:33;;;;;;;;;;;;;;;-140.72;100.00;52496.38;4987937;28;20304;-71
2023/07/12 02:11:58;;;;;;;;;;;;;;;-140.72;100.00;52476.09;4994048;28;20395;-71
2023/07/12 02:14:23;;;;;;;;;;;;;;;-140.72;100.00;52492.31;4993675;28;20107;-71
2023/07/12 02:16:49;;;;;;;;;;;;;;;-140.72;100.00;52482.16;4994015;28;20311;-71
2023/07/12 02:19:14;;;;;;;;;;;;;;;-140.72;100.00;52455.78;4979821;28;20288;-71
2023/07/12 02:21:39;;;;;;;;;;;;;;;-140.72;100.00;52496.38;4999168;28;19922;-71
2023/07/12 02:24:05;;;;;;;;;;;;;;;-140.72;100.00;52474.06;4994912;28;20043;-71
2023/07/12 02:26:30;;;;;;;;;;;;;;;-140.72;100.00;52488.25;4994384;28;19933;-71
2023/07/12 02:28:55;;;;;;;;;;;;;;;-140.72;100.00;52496.38;4992803;28;19929;-72
2023/07/12 02:31:22;;;;;;;;;;;;;;;-140.72;100.00;52467.97;4995684;28;19929;-72
2023/07/12 02:33:48;;;;;;;;;;;;;;;-140.72;100.00;52467.97;4990631;28;19929;-72
2023/07/12 02:36:13;;;;;;;;;;;;;;;-140.72;100.00;52486.22;4992237;28;19966;-70
2023/07/12 02:38:39;;;;;;;;;;;;;;;-140.72;100.00;52484.19;4992938;28;19922;-70
2023/07/12 02:41:20;;;;;;;;;;;;;;;-140.72;100.00;52520.72;4994030;28;20331;-71
2023/07/12 02:43:46;;;;;;;;;;;;;;;-140.72;100.00;52508.56;4990547;28;19922;-70
2023/07/12 02:46:14;;;;;;;;;;;;;;;-140.72;100.00;52484.19;4992604;28;19926;-70
2023/07/12 02:48:39;;;;;;;;;;;;;;;-140.72;100.00;52476.09;4995126;28;20009;-70
2023/07/12 02:51:04;;;;;;;;;;;;;;;-140.72;100.00;52520.72;4988524;28;20037;-70
2023/07/12 02:53:30;;;;;;;;;;;;;;;-140.72;100.00;52492.31;4993604;28;20004;-70
2023/07/12 02:55:55;;;;;;;;;;;;;;;-140.72;100.00;52484.19;4990149;28;19929;-70
2023/07/12 02:58:28;;;;;;;;;;;;;;;-140.72;100.00;52488.25;4983472;28;19926;-70
2023/07/12 03:00:57;;;;;;;;;;;;;;;-140.72;100.00;52512.59;4991263;28;19922;-70
2023/07/12 03:03:22;;;;;;;;;;;;;;;-140.72;100.00;52480.16;4991203;28;20380;-70
2023/07/12 03:05:50;;;;;;;;;;;;;;;-140.72;100.00;52470.00;4990872;28;19918;-70
2023/07/12 03:08:15;;;;;;;;;;;;;;;-140.72;100.00;52453.75;4993405;28;19925;-71
2023/07/12 03:10:41;;;;;;;;;;;;;;;-140.72;100.00;52532.91;4991662;28;21660;-71
2023/07/12 03:13:07;;;;;;;;;;;;;;;-140.72;100.00;52463.91;4991366;28;19922;-71
2023/07/12 03:15:36;;;;;;;;;;;;;;;-140.72;100.00;52492.31;4992497;28;19921;-70
2023/07/12 03:18:01;;;;;;;;;;;;;;;-140.72;100.00;52500.44;4990462;28;19937;-71
2023/07/12 03:20:26;;;;;;;;;;;;;;;-140.72;100.00;52516.66;4990947;28;19922;-71
2023/07/12 03:22:51;;;;;;;;;;;;;;;-140.72;100.00;52474.06;4993641;28;19928;-70
2023/07/12 03:25:17;;;;;;;;;;;;;;;-140.72;100.00;52516.66;4996519;28;20407;-71
2023/07/12 03:27:42;;;;;;;;;;;;;;;-140.72;100.00;52486.22;4989593;28;19960;-71
2023/07/12 03:30:08;;;;;;;;;;;;;;;-140.72;100.00;52500.44;4991742;28;19928;-71
2023/07/12 03:32:34;;;;;;;;;;;;;;;-140.72;100.00;52510.59;4987585;28;19922;-71
2023/07/12 03:34:59;;;;;;;;;;;;;;;-140.72;100.00;52512.59;4971618;28;19937;-71
2023/07/12 03:37:24;;;;;;;;;;;;;;;-140.72;100.00;52492.31;4993586;28;19929;-71
2023/07/12 03:39:50;;;;;;;;;;;;;;;-140.72;100.00;52490.28;4994532;28;19976;-70
2023/07/12 03:42:16;;;;;;;;;;;;;;;-140.72;100.00;52490.28;4989876;28;19937;-71
2023/07/12 03:44:41;;;;;;;;;;;;;;;-140.72;100.00;52504.50;4970398;28;20865;-71
2023/07/12 03:47:06;;;;;;;;;;;;;;;-140.72;100.00;52553.19;4973718;28;19996;-71
2023/07/12 03:49:32;;;;;;;;;;;;;;;-140.72;100.00;52557.25;4990545;28;19991;-71
2023/07/12 03:51:57;;;;;;;;;;;;;;;-140.72;100.00;52496.38;4976564;28;19925;-71
2023/07/12 03:54:23;;;;;;;;;;;;;;;-140.72;100.00;52516.66;4989414;28;20327;-71
2023/07/12 03:56:48;;;;;;;;;;;;;;;-140.72;100.00;52508.56;4991874;28;20387;-71
2023/07/12 03:59:13;;;;;;;;;;;;;;;-140.72;100.00;52508.56;4971059;28;19926;-72
2023/07/12 04:01:38;;;;;;;;;;;;;;;-140.72;100.00;52502.47;4988685;28;20332;-71
2023/07/12 04:04:04;;;;;;;;;;;;;;;-140.72;100.00;52502.47;4986391;28;19921;-70
2023/07/12 04:06:29;;;;;;;;;;;;;;;-140.72;100.00;52504.50;4973648;28;19977;-71
2023/07/12 04:08:55;;;;;;;;;;;;;;;-140.72;100.00;52512.59;4991122;28;19929;-70
2023/07/12 04:11:28;;;;;;;;;;;;;;;-140.72;100.00;52478.13;4991414;28;19933;-71
2023/07/12 04:13:54;;;;;;;;;;;;;;;-140.72;100.00;52508.56;4985219;28;19922;-71
2023/07/12 04:16:19;;;;;;;;;;;;;;;-140.72;100.00;52530.88;4992870;28;19929;-70
2023/07/12 04:18:44;;;;;;;;;;;;;;;-140.72;100.00;52512.59;4997759;28;19948;-75
2023/07/12 04:21:10;;;;;;;;;;;;;;;-140.72;100.00;52492.31;4984531;28;19926;-72
2023/07/12 04:23:46;;;;;;;;;;;;;;;-140.72;100.00;52498.41;4992628;28;19922;-72
2023/07/12 04:26:12;;;;;;;;;;;;;;;-140.72;100.00;52484.19;4987788;28;19930;-71
2023/07/12 04:28:42;;;;;;;;;;;;;;;-140.72;100.00;52508.56;4973687;28;20252;-73
2023/07/12 04:31:09;;;;;;;;;;;;;;;-140.72;100.00;52492.31;4989209;28;19929;-72
2023/07/12 04:33:35;;;;;;;;;;;;;;;-140.72;100.00;52528.84;4992900;28;19930;-73
2023/07/12 04:36:04;;;;;;;;;;;;;;;-140.72;100.00;52532.91;4974284;28;20406;-72
2023/07/12 04:38:32;;;;;;;;;;;;;;;-140.72;100.00;52480.16;4985124;28;19986;-70
2023/07/12 04:40:57;;;;;;;;;;;;;;;-140.72;100.00;52520.72;4989400;28;20335;-70
2023/07/12 04:43:23;;;;;;;;;;;;;;;-140.72;100.00;52490.28;4988161;28;19980;-70
2023/07/12 04:45:48;;;;;;;;;;;;;;;-140.72;100.00;52500.44;4992846;28;19929;-70
2023/07/12 04:48:14;;;;;;;;;;;;;;;-140.72;100.00;52498.41;4990257;28;19929;-70
2023/07/12 04:50:39;;;;;;;;;;;;;;;-140.72;100.00;52518.69;4988961;28;19965;-70
2023/07/12 04:53:04;;;;;;;;;;;;;;;-140.72;100.00;52551.16;4986746;28;19921;-70
2023/07/12 04:55:29;;;;;;;;;;;;;;;-140.72;100.00;52482.16;4974951;28;19922;-70
2023/07/12 04:57:55;;;;;;;;;;;;;;;-140.72;100.00;52528.84;4986911;28;19984;-70
2023/07/12 05:00:20;;;;;;;;;;;;;;;-140.72;100.00;52526.81;4987818;28;19926;-70
2023/07/12 05:02:46;;;;;;;;;;;;;;;-140.72;100.00;52514.63;4972080;28;19922;-70
2023/07/12 05:05:12;;;;;;;;;;;;;;;-140.72;100.00;52530.88;4995926;28;19985;-70
2023/07/12 05:07:38;;;;;;;;;;;;;;;-140.72;100.00;52526.81;4992371;28;20272;-69
2023/07/12 05:10:03;;;;;;;;;;;;;;;-140.72;100.00;52553.19;4996150;28;19921;-70
2023/07/12 05:12:29;;;;;;;;;;;;;;;-140.72;100.00;52502.47;4992657;28;19956;-70
2023/07/12 05:14:54;;;;;;;;;;;;;;;-140.72;100.00;52508.56;4990370;28;19922;-69
2023/07/12 05:17:20;;;;;;;;;;;;;;;-140.72;100.00;52516.66;4987407;28;19953;-71
2023/07/12 05:19:45;;;;;;;;;;;;;;;-140.72;100.00;52500.44;4988885;28;19929;-70
2023/07/12 05:22:10;;;;;;;;;;;;;;;-140.72;100.00;52504.50;4987837;28;20304;-70
2023/07/12 05:24:35;;;;;;;;;;;;;;;-140.72;100.00;52492.31;4971489;28;20382;-71
2023/07/12 05:27:00;;;;;;;;;;;;;;;-140.72;100.00;52490.28;4973316;28;19926;-69
2023/07/12 05:29:26;;;;;;;;;;;;;;;-140.72;100.00;52451.72;4989343;28;19921;-70
2023/07/12 05:32:04;;;;;;;;;;;;;;;-140.72;100.00;52534.94;4993187;28;20346;-71
2023/07/12 05:34:31;;;;;;;;;;;;;;;-140.72;100.00;52482.16;4987679;28;19936;-69
2023/07/12 05:36:56;;;;;;;;;;;;;;;-140.72;100.00;52526.81;4966904;28;20036;-69
2023/07/12 05:39:23;;;;;;;;;;;;;;;-140.72;100.00;52502.47;4991197;28;20408;-70
2023/07/12 05:41:48;;;;;;;;;;;;;;;-140.72;100.00;52470.00;4987336;28;19926;-69
2023/07/12 05:44:13;;;;;;;;;;;;;;;-140.72;100.00;52480.16;4986547;28;19949;-69
2023/07/12 05:46:39;;;;;;;;;;;;;;;-140.72;100.00;52500.44;4989613;28;22348;-69
2023/07/12 05:49:04;;;;;;;;;;;;;;;-140.72;100.00;52508.56;4992630;28;19956;-73
2023/07/12 05:51:29;;;;;;;;;;;;;;;-140.72;100.00;52480.16;4986699;28;19922;-70
2023/07/12 05:53:55;;;;;;;;;;;;;;;-140.72;100.00;52480.16;4990214;28;19921;-69
2023/07/12 05:56:20;;;;;;;;;;;;;;;-140.72;100.00;52500.44;4983944;28;20013;-69
2023/07/12 05:58:45;;;;;;;;;;;;;;;-140.72;100.00;52524.78;4983780;28;20281;-71
2023/07/12 06:01:11;;;;;;;;;;;;;;;-140.72;100.00;52520.72;4991367;28;19989;-70
2023/07/12 06:03:36;;;;;;;;;;;;;;;-140.72;100.00;52504.50;4975284;28;20601;-71
2023/07/12 06:06:05;;;;;;;;;;;;;;;-140.72;100.00;52508.56;4985479;28;19929;-71
2023/07/12 06:08:30;;;;;;;;;;;;;;;-140.72;100.00;52467.97;4978601;28;20411;-70
2023/07/12 06:10:55;;;;;;;;;;;;;;;-140.72;100.00;52425.34;4990306;28;19968;-72
2023/07/12 06:13:21;;;;;;;;;;;;;;;-140.72;100.00;52480.16;4984406;28;19957;-71
2023/07/12 06:15:46;;;;;;;;;;;;;;;-140.72;100.00;52451.72;4985530;28;20336;-70
2023/07/12 06:18:11;;;;;;;;;;;;;;;-140.72;100.00;52437.53;4976639;28;19961;-70
2023/07/12 06:20:36;;;;;;;;;;;;;;;-140.72;100.00;52478.13;4991578;28;19917;-71
2023/07/12 06:23:02;;;;;;;;;;;;;;;-140.72;100.00;52439.56;4986073;28;20349;-70
2023/07/12 06:25:28;;;;;;;;;;;;;;;-140.72;100.00;52494.34;4991949;28;20016;-70
2023/07/12 06:27:53;;;;;;;;;;;;;;;-140.72;100.00;52419.28;4989146;28;19921;-71
2023/07/12 06:30:18;;;;;;;;;;;;;;;-140.72;100.00;52427.38;4993007;28;19966;-70
2023/07/12 06:32:44;;;;;;;;;;;;;;;-140.72;100.00;52405.06;4984234;28;19918;-70
2023/07/12 06:35:10;;;;;;;;;;;;;;;-140.72;100.00;52459.84;4990211;28;19922;-70
2023/07/12 06:37:35;;;;;;;;;;;;;;;-140.72;100.00;52421.28;4963700;28;20348;-70
2023/07/12 06:40:00;;;;;;;;;;;;;;;-140.72;100.00;52463.91;4974535;28;20019;-70
2023/07/12 06:42:25;;;;;;;;;;;;;;;-140.72;100.00;52455.78;4989610;28;19922;-70
2023/07/12 06:44:50;;;;;;;;;;;;;;;-140.72;100.00;52417.25;4978471;28;19921;-71
2023/07/12 06:47:16;;;;;;;;;;;;;;;-140.72;100.00;52435.50;4974488;28;19980;-71
2023/07/12 06:49:41;;;;;;;;;;;;;;;-140.72;100.00;52433.47;4989554;28;19918;-71
2023/07/12 06:52:08;;;;;;;;;;;;;;;-140.72;100.00;52419.28;4981747;28;19918;-71
2023/07/12 06:54:33;;;;;;;;;;;;;;;-140.72;100.00;52413.19;4992605;28;20486;-71
2023/07/12 06:56:59;;;;;;;;;;;;;;;-140.72;100.00;52415.22;4984986;28;19930;-71
2023/07/12 06:59:24;;;;;;;;;;;;;;;-140.72;100.00;52398.97;4985551;28;19976;-72
2023/07/12 07:01:49;;;;;;;;;;;;;;;-140.72;100.00;52401.00;4990390;28;20410;-71
2023/07/12 07:04:15;;;;;;;;;;;;;;;-140.72;100.00;52457.81;4993354;28;20316;-71
2023/07/12 07:06:40;;;;;;;;;;;;;;;-140.72;100.00;52453.75;4995437;28;20370;-73
2023/07/12 07:09:18;;;;;;;;;;;;;;;-140.72;100.00;52439.56;4994554;28;19945;-71
2023/07/12 07:11:45;;;;;;;;;;;;;;;-140.72;100.00;52439.56;4980582;28;19974;-73
2023/07/12 07:14:11;;;;;;;;;;;;;;;-140.72;100.00;52417.25;4974636;28;20284;-70
2023/07/12 07:16:36;;;;;;;;;;;;;;;-140.72;100.00;52403.03;4996043;28;19929;-69
2023/07/12 07:19:02;;;;;;;;;;;;;;;-140.72;100.00;52366.50;4987227;28;19923;-71
2023/07/12 07:21:28;;;;;;;;;;;;;;;-140.72;100.00;52435.50;4972596;28;20360;-69
2023/07/12 07:23:53;;;;;;;;;;;;;;;-140.72;100.00;52407.09;4984890;28;19964;-70
2023/07/12 07:26:18;;;;;;;;;;;;;;;-140.72;100.00;52437.53;4995083;28;20008;-72
2023/07/12 07:28:44;;;;;;;;;;;;;;;-140.72;100.00;52403.03;4977351;28;19993;-71
2023/07/12 07:31:09;;;;;;;;;;;;;;;-140.72;100.00;52378.69;4978325;28;19975;-72
2023/07/12 07:33:37;;;;;;;;;;;;;;;-140.72;100.00;52370.56;4988232;28;20288;-70
2023/07/12 07:36:08;;;;;;;;;;;;;;;-140.72;100.00;52396.94;4970265;28;19988;-71
2023/07/12 07:38:34;;;;;;;;;;;;;;;-140.72;100.00;52398.97;4993978;28;19992;-71
2023/07/12 07:41:03;;;;;;;;;;;;;;;-140.72;100.00;52425.34;4993673;28;20021;-70
2023/07/12 07:43:28;;;;;;;;;;;;;;;-140.72;100.00;52407.09;4986529;28;19922;-71
2023/07/12 07:45:57;;;;;;;;;;;;;;;-140.72;100.00;52386.81;4995470;28;19991;-71
2023/07/12 07:48:22;;;;;;;;;;;;;;;-140.72;100.00;52313.75;4973615;28;19925;-71
2023/07/12 07:50:58;;;;;;;;;;;;;;;-140.72;100.00;52384.78;4982600;28;19934;-71
2023/07/12 07:53:23;;;;;;;;;;;;;;;-140.72;100.00;52376.66;4995926;28;19945;-71
2023/07/12 07:55:49;;;;;;;;;;;;;;;-140.72;100.00;52380.72;4994513;28;19984;-71
2023/07/12 07:58:14;;;;;;;;;;;;;;;-140.72;100.00;52431.44;4990086;28;19922;-71
2023/07/12 08:00:39;;;;;;;;;;;;;;;-140.72;100.00;52398.97;4994962;28;20325;-71
2023/07/12 08:03:06;;;;;;;;;;;;;;;-140.72;100.00;52340.13;4987362;28;19928;-71
2023/07/12 08:05:31;;;;;;;;;;;;;;;-140.72;100.00;52366.50;4988908;28;19987;-71
2023/07/12 08:07:58;;;;;;;;;;;;;;;-140.72;100.00;52356.38;4973338;28;19996;-70
2023/07/12 08:10:24;;;;;;;;;;;;;;;-140.72;100.00;52321.88;4972459;28;20484;-74
2023/07/12 08:12:49;;;;;;;;;;;;;;;-140.72;100.00;52338.09;4973587;28;20010;-72
2023/07/12 08:15:17;;;;;;;;;;;;;;;-140.72;100.00;52372.59;4976037;28;19918;-70
2023/07/12 08:17:44;;;;;;;;;;;;;;;-140.72;100.00;52380.72;4971032;28;20020;-71
2023/07/12 08:20:09;;;;;;;;;;;;;;;-140.72;100.00;52370.56;4990929;28;19917;-71
2023/07/12 08:22:35;;;;;;;;;;;;;;;-140.72;100.00;52332.03;4987972;28;19932;-69
2023/07/12 08:25:07;;;;;;;;;;;;;;;-140.72;100.00;52356.38;4985486;28;19921;-72
2023/07/12 08:27:33;;;;;;;;;;;;;;;-140.72;100.00;52336.06;4983247;28;20306;-71
2023/07/12 08:30:02;;;;;;;;;;;;;;;-140.72;100.00;52340.13;4995455;28;19944;-71
2023/07/12 08:32:29;;;;;;;;;;;;;;;-140.72;100.00;52305.63;4994010;28;19924;-70
2023/07/12 08:34:54;;;;;;;;;;;;;;;-140.72;100.00;52313.75;4988554;28;19921;-71
2023/07/12 08:37:23;;;;;;;;;;;;;;;-140.72;100.00;52325.94;4993133;28;19992;-70
2023/07/12 08:39:48;;;;;;;;;;;;;;;-140.72;100.00;52368.53;4975580;28;19951;-70
2023/07/12 08:42:14;;;;;;;;;;;;;;;-140.72;100.00;52374.63;4990026;28;19976;-70
2023/07/12 08:44:40;;;;;;;;;;;;;;;-140.72;100.00;52419.28;4983245;28;20004;-72
2023/07/12 08:47:10;;;;;;;;;;;;;;;-140.72;100.00;52354.34;4985617;28;19984;-72
2023/07/12 08:49:35;;;;;;;;;;;;;;;-140.72;100.00;52384.78;4988120;28;19968;-71
2023/07/12 08:52:05;;;;;;;;;;;;;;;-140.72;100.00;52323.91;4968437;28;20407;-71
2023/07/12 08:54:34;;;;;;;;;;;;;;;-140.72;100.00;52340.13;4983977;28;19918;-71
2023/07/12 08:57:15;;;;;;;;;;;;;;;-140.72;100.00;52342.16;4987457;28;20320;-73
2023/07/12 08:59:52;;;;;;;;;;;;;;;-140.72;100.00;52261.00;4989616;28;19933;-71
2023/07/12 09:02:22;;;;;;;;;;;;;;;-140.72;100.00;52263.03;4987837;28;19953;-71
2023/07/12 09:04:48;;;;;;;;;;;;;;;-140.72;83.09;52198.09;4987028;28;19979;-71
2023/07/12 09:07:20;;;;;;;;;;;;;;;-140.72;62.21;52214.34;4990877;28;19926;-72
2023/07/12 09:09:47;;;;;;;;;;;;;;;-140.72;52.38;52261.00;4979716;28;19918;-71
2023/07/12 09:12:21;;;;;;;;;;;;;;;-140.72;46.71;52315.78;4987197;28;19918;-73
2023/07/12 09:14:51;;;;;;;;;;;;;;;-140.72;52.89;52289.41;4978642;28;20017;-72
2023/07/12 09:17:22;;;;;;;;;;;;;;;-140.72;54.92;52236.66;4987355;28;19928;-71
2023/07/12 09:19:47;;;;;;;;;;;;;;;-140.72;33.08;52248.81;4983578;28;20016;-71
2023/07/12 09:22:14;;;;;;;;;;;;;;;-140.72;0.75;52238.69;4992894;28;19922;-70
2023/07/12 09:24:44;;;;;;;;;;;;;;;-140.72;10.68;52228.53;4993173;28;20441;-71
2023/07/12 09:27:17;;;;;;;;;;;;;;;-140.72;0.00;52301.59;4992623;28;19929;-71
2023/07/12 09:29:43;;;;;;;;;;;;;;;-140.72;19.90;52291.44;4992676;28;19921;-72
2023/07/12 09:32:21;;;;;;;;;;;;;;;-140.72;44.09;52366.50;4992430;28;19922;-72
2023/07/12 09:34:47;;;;;;;;;;;;;;;-140.72;48.08;52289.41;4991481;28;19985;-72
2023/07/12 09:37:17;;;;;;;;;;;;;;;-140.72;20.88;52273.19;4989914;28;19926;-72
2023/07/12 09:39:52;;;;;;;;;;;;;;;-140.72;1.27;52220.41;4994934;28;19922;-71
2023/07/12 09:42:18;;;;;;;;;;;;;;;-140.72;0.00;52183.91;4994158;28;19918;-71
2023/07/12 09:44:44;;;;;;;;;;;;;;;-140.72;0.00;52267.09;4977005;28;20004;-71
2023/07/12 09:47:16;;;;;;;;;;;;;;;-140.72;0.00;52285.34;4975541;28;19929;-70
2023/07/12 09:49:47;;;;;;;;;;;;;;;-140.72;0.00;52317.81;4981372;28;19925;-71
2023/07/12 09:52:31;;;;;;;;;;;;;;;-140.72;19.27;52325.94;4982188;28;20012;-71
2023/07/12 09:55:14;;;;;;;;;;;;;;;-140.72;45.56;52344.19;4993885;28;19918;-71
2023/07/12 09:57:54;;;;;;;;;;;;;;;-140.72;25.08;52220.41;4990096;28;19929;-72
2023/07/12 10:00:37;;;;;;;;;;;;;;;-140.72;0.00;52224.47;4973777;28;19930;-72
2023/07/12 10:03:15;;;;;;;;;;;;;;;-140.72;0.00;52187.97;4975520;28;20024;-72
2023/07/12 10:05:44;;;;;;;;;;;;;;;-140.72;0.00;52265.06;4987021;28;19918;-72
2023/07/12 10:08:12;;;;;;;;;;;;;;;-140.72;31.29;52297.53;4978856;28;19929;-72
2023/07/12 10:10:51;;;;;;;;;;;;;;;-140.72;56.57;52325.94;4988432;28;19930;-70
2023/07/12 10:13:20;;;;;;;;;;;;;;;-140.72;83.45;52378.69;4987226;28;19953;-70
2023/07/12 10:15:45;;;;;;;;;;;;;;;-140.72;100.00;52334.03;4983028;28;20016;-72
2023/07/12 10:18:22;;;;;;;;;;;;;;;-140.72;100.00;52344.19;4987611;28;19929;-72
2023/07/12 10:20:55;;;;;;;;;;;;;;;-140.72;100.00;52366.50;4990973;28;19917;-72
2023/07/12 10:23:22;;;;;;;;;;;;;;;-140.72;100.00;52411.16;4981132;28;19918;-72
2023/07/12 10:25:51;;;;;;;;;;;;;;;-140.72;100.00;52388.84;4990530;28;19921;-69
2023/07/12 10:28:40;;;;;;;;;;;;;;;-140.72;100.00;52370.56;4971583;28;19922;-68
2023/07/12 10:31:20;;;;;;;;;;;;;;;-140.72;100.00;52362.44;4992694;28;20282;-70
2023/07/12 10:33:48;;;;;;;;;;;;;;;-140.72;100.00;52384.78;4993332;28;19925;-70
2023/07/12 10:36:15;;;;;;;;;;;;;;;-140.72;100.00;52382.75;4995109;28;20001;-70
2023/07/12 10:38:41;;;;;;;;;;;;;;;-140.72;100.00;52388.84;4985442;28;19997;-70
2023/07/12 10:41:18;;;;;;;;;;;;;;;-140.72;100.00;52374.63;4997110;28;19998;-70
2023/07/12 10:43:49;;;;;;;;;;;;;;;-140.72;100.00;52409.13;5004112;28;20375;-70
2023/07/12 10:46:14;;;;;;;;;;;;;;;-140.72;100.00;52342.16;4989143;28;20277;-70
2023/07/12 10:48:45;;;;;;;;;;;;;;;-140.72;100.00;52372.59;4995778;28;19922;-71
2023/07/12 10:51:18;;;;;;;;;;;;;;;-140.72;100.00;52246.78;4989448;28;20020;-70
2023/07/12 10:53:48;;;;;;;;;;;;;;;-140.72;0.00;52102.75;4991368;28;19918;-70
2023/07/12 10:56:18;;;;;;;;;;;;;;;-140.72;0.00;52212.31;4987514;28;19925;-70
2023/07/12 10:58:48;;;;;;;;;;;;;;;-140.72;0.00;52238.69;4988663;28;20296;-70
2023/07/12 11:01:32;;;;;;;;;;;;;;;-140.72;0.00;52287.38;4980110;28;19965;-70
2023/07/12 11:04:11;;;;;;;;;;;;;;;-140.72;0.00;52334.03;4994604;28;20020;-70
2023/07/12 11:06:52;;;;;;;;;;;;;;;-140.72;0.00;52356.38;4973852;28;20389;-70
2023/07/12 11:09:18;;;;;;;;;;;;;;;-140.72;0.00;52342.16;4988310;28;19961;-70
2023/07/12 11:11:49;;;;;;;;;;;;;;;-140.72;0.00;52344.19;4995100;28;20256;-71
2023/07/12 11:14:24;;;;;;;;;;;;;;;-140.72;0.00;52307.66;4993743;28;19925;-72
2023/07/12 11:17:04;;;;;;;;;;;;;;;-140.72;0.00;52196.06;4986893;28;19927;-73
2023/07/12 11:19:38;;;;;;;;;;;;;;;-140.72;0.00;52194.03;4987727;28;19926;-72
2023/07/12 11:22:24;;;;;;;;;;;;;;;-140.72;0.00;52244.78;4996279;28;19972;-72
2023/07/12 11:24:52;;;;;;;;;;;;;;;-140.72;0.00;52240.72;4994819;28;19930;-72
2023/07/12 11:27:30;;;;;;;;;;;;;;;-140.72;0.00;52311.72;4997127;28;19929;-72
2023/07/12 11:30:06;;;;;;;;;;;;;;;-140.72;0.00;52187.97;4993215;28;20345;-72
2023/07/12 11:32:33;;;;;;;;;;;;;;;-140.72;0.00;52108.81;4995466;28;19970;-72
2023/07/12 11:35:01;;;;;;;;;;;;;;;-140.72;0.00;52088.53;4977889;28;20080;-72
2023/07/12 11:37:34;;;;;;;;;;;;;;;-140.72;0.00;52228.53;4994852;28;19988;-72
2023/07/12 11:39:59;;;;;;;;;;;;;;;-140.72;0.00;52289.41;4977373;28;19918;-72
2023/07/12 11:42:28;;;;;;;;;;;;;;;-140.72;0.00;52141.28;4994477;28;20411;-71
2023/07/12 11:45:05;;;;;;;;;;;;;;;-140.72;0.00;52114.91;4987373;28;19964;-72
2023/07/12 11:47:31;;;;;;;;;;;;;;;-140.72;0.00;52054.03;4987382;28;19921;-72
2023/07/12 11:49:58;;;;;;;;;;;;;;;-140.72;0.00;52005.34;4991383;28;20359;-72
2023/07/12 11:52:25;;;;;;;;;;;;;;;-140.72;0.00;51952.59;4985303;28;19925;-71
2023/07/12 11:54:53;;;;;;;;;;;;;;;-140.72;0.00;52001.28;4987114;28;19928;-72
2023/07/12 11:57:19;;;;;;;;;;;;;;;-140.72;0.00;52049.97;4994700;28;19918;-73
2023/07/12 11:59:47;;;;;;;;;;;;;;;-140.72;0.00;52035.78;4990296;28;19922;-72
2023/07/12 12:02:21;;;;;;;;;;;;;;;-140.72;0.00;52092.59;4989969;28;19965;-71
2023/07/12 12:04:49;;;;;;;;;;;;;;;-140.72;0.00;52033.75;4992718;28;19932;-72
2023/07/12 12:07:36;;;;;;;;;;;;;;;-140.72;0.00;51995.19;4990213;28;19929;-72
2023/07/12 12:10:02;;;;;;;;;;;;;;;-140.72;0.00;51995.19;4984986;28;19921;-71
2023/07/12 12:12:29;;;;;;;;;;;;;;;-140.72;0.00;52175.78;4985541;28;20260;-75
2023/07/12 12:14:54;;;;;;;;;;;;;;;-140.72;0.00;52161.56;4999599;28;19984;-73
2023/07/12 12:17:24;;;;;;;;;;;;;;;-140.72;0.00;52092.59;4970269;28;19922;-70
2023/07/12 12:19:50;;;;;;;;;;;;;;;-140.72;0.00;51972.88;4987457;28;20317;-69
2023/07/12 12:22:17;;;;;;;;;;;;;;;-140.72;0.00;51968.81;4976233;28;19922;-72
2023/07/12 12:24:46;;;;;;;;;;;;;;;-140.72;0.00;52015.50;4968337;28;20396;-73